createdAt,value
2022-08-29T00:01:13.388Z,2.85
2022-08-29T00:03:43.136Z,2.92
2022-08-29T00:06:11.146Z,3.05
2022-08-29T00:08:38.318Z,3.03
2022-08-29T00:11:08.072Z,3.60
2022-08-29T00:13:35.933Z,3.45
2022-08-29T00:16:03.619Z,2.83
2022-08-29T00:18:31.091Z,2.88
2022-08-29T00:20:58.408Z,2.80
2022-08-29T00:23:25.571Z,3.05
2022-08-29T00:25:52.873Z,3.67
2022-08-29T00:28:20.993Z,3.20
2022-08-29T00:30:48.850Z,3.22
2022-08-29T00:33:16.392Z,2.88
2022-08-29T00:35:45.846Z,3.33
2022-08-29T00:38:16.008Z,3.83
2022-08-29T00:41:04.282Z,3.50
2022-08-29T00:43:34.081Z,3.17
2022-08-29T00:46:28.150Z,2.90
2022-08-29T00:49:02.602Z,3.25
2022-08-29T00:51:29.717Z,3.58
2022-08-29T00:54:01.702Z,3.08
2022-08-29T00:56:29.865Z,3.35
2022-08-29T00:59:28.073Z,3.20
2022-08-29T01:01:55.960Z,3.30
2022-08-29T01:04:24.197Z,3.92
2022-08-29T01:06:53.043Z,3.50
2022-08-29T01:09:21.163Z,3.35
2022-08-29T01:12:07.287Z,3.15
2022-08-29T01:14:38.420Z,3.33
2022-08-29T01:17:08.721Z,3.28
2022-08-29T01:19:46.409Z,3.00
2022-08-29T01:22:34.938Z,3.30
2022-08-29T01:25:09.322Z,3.22
2022-08-29T01:27:40.402Z,3.17
2022-08-29T01:30:09.524Z,3.00
2022-08-29T01:32:36.620Z,2.97
2022-08-29T01:35:05.686Z,3.10
2022-08-29T01:37:35.647Z,3.25
2022-08-29T01:40:03.539Z,3.40
2022-08-29T01:42:33.451Z,2.97
2022-08-29T01:45:08.762Z,3.00
2022-08-29T01:47:39.048Z,2.97
2022-08-29T01:50:16.346Z,3.35
2022-08-29T01:52:43.867Z,3.40
2022-08-29T01:55:11.462Z,3.20
2022-08-29T01:57:39.944Z,3.08
2022-08-29T02:00:10.448Z,3.70
2022-08-29T02:02:38.501Z,3.08
2022-08-29T02:05:07.748Z,3.08
2022-08-29T02:07:34.919Z,3.55
2022-08-29T02:10:02.231Z,3.10
2022-08-29T02:12:31.694Z,2.90
2022-08-29T02:14:59.289Z,3.08
2022-08-29T02:17:26.386Z,3.22
2022-08-29T02:19:53.586Z,3.20
2022-08-29T02:22:20.701Z,3.08
2022-08-29T02:24:47.730Z,3.17
2022-08-29T02:27:14.941Z,2.95
2022-08-29T02:29:42.232Z,3.28
2022-08-29T02:32:12.585Z,3.15
2022-08-29T02:34:43.958Z,2.80
2022-08-29T02:37:12.756Z,3.20
2022-08-29T02:39:39.754Z,3.10
2022-08-29T02:42:07.064Z,3.17
2022-08-29T02:44:34.646Z,3.00
2022-08-29T02:47:01.742Z,3.35
2022-08-29T02:49:28.870Z,3.13
2022-08-29T02:51:59.955Z,2.85
2022-08-29T02:54:26.935Z,3.05
2022-08-29T02:56:53.983Z,3.30
2022-08-29T02:59:21.126Z,3.05
2022-08-29T03:01:48.258Z,3.10
2022-08-29T03:04:15.307Z,3.92
2022-08-29T03:06:42.346Z,3.30
2022-08-29T03:09:09.429Z,2.78
2022-08-29T03:11:36.703Z,3.40
2022-08-29T03:14:03.918Z,2.67
2022-08-29T03:16:31.698Z,3.30
2022-08-29T03:18:59.070Z,3.33
2022-08-29T03:21:27.525Z,3.22
2022-08-29T03:23:56.397Z,3.05
2022-08-29T03:26:24.713Z,3.20
2022-08-29T03:28:52.391Z,2.95
2022-08-29T03:31:19.593Z,3.40
2022-08-29T03:33:46.803Z,3.47
2022-08-29T03:36:14.940Z,3.30
2022-08-29T03:38:46.630Z,3.05
2022-08-29T03:41:22.184Z,3.15
2022-08-29T03:43:49.453Z,3.65
2022-08-29T03:46:16.592Z,3.40
2022-08-29T03:48:43.917Z,3.50
2022-08-29T03:51:11.010Z,3.65
2022-08-29T03:53:38.107Z,3.70
2022-08-29T03:56:06.446Z,3.40
2022-08-29T03:58:34.451Z,3.45
2022-08-29T04:01:01.684Z,3.25
2022-08-29T04:03:30.854Z,3.75
2022-08-29T04:05:59.392Z,3.28
2022-08-29T04:08:26.455Z,3.55
2022-08-29T04:10:53.572Z,3.15
2022-08-29T04:13:20.663Z,2.88
2022-08-29T04:15:47.834Z,3.35
2022-08-29T04:18:15.651Z,3.25
2022-08-29T04:20:48.691Z,3.05
2022-08-29T04:23:16.119Z,3.92
2022-08-29T04:25:44.166Z,3.40
2022-08-29T04:28:15.066Z,3.10
2022-08-29T04:30:51.869Z,3.58
2022-08-29T04:33:22.702Z,3.50
2022-08-29T04:35:51.274Z,3.30
2022-08-29T04:38:19.253Z,3.25
2022-08-29T04:40:46.638Z,3.58
2022-08-29T04:43:13.837Z,3.00
2022-08-29T04:45:41.566Z,3.38
2022-08-29T04:48:10.955Z,3.47
2022-08-29T04:50:38.231Z,3.60
2022-08-29T04:53:05.702Z,3.40
2022-08-29T04:55:33.181Z,3.53
2022-08-29T04:58:00.521Z,3.30
2022-08-29T05:00:30.205Z,3.33
2022-08-29T05:02:57.680Z,2.78
2022-08-29T05:05:25.324Z,2.90
2022-08-29T05:07:52.560Z,3.13
2022-08-29T05:10:21.855Z,3.22
2022-08-29T05:12:49.175Z,3.75
2022-08-29T05:15:16.881Z,3.08
2022-08-29T05:17:44.702Z,3.25
2022-08-29T05:20:12.588Z,2.95
2022-08-29T05:22:40.701Z,3.20
2022-08-29T05:25:08.358Z,3.40
2022-08-29T05:27:35.593Z,3.03
2022-08-29T05:30:04.222Z,3.47
2022-08-29T05:32:31.364Z,3.15
2022-08-29T05:34:59.024Z,3.08
2022-08-29T05:37:26.322Z,3.50
2022-08-29T05:39:54.085Z,3.22
2022-08-29T05:42:22.941Z,3.60
2022-08-29T05:44:50.405Z,3.65
2022-08-29T05:47:19.186Z,3.45
2022-08-29T05:49:48.217Z,3.30
2022-08-29T05:52:18.105Z,3.33
2022-08-29T05:54:46.552Z,3.50
2022-08-29T05:57:19.172Z,3.22
2022-08-29T05:59:51.072Z,3.60
2022-08-29T06:02:19.340Z,13.05
2022-08-29T06:04:46.692Z,7.63
2022-08-29T06:07:14.672Z,4.05
2022-08-29T06:09:42.847Z,3.42
2022-08-29T06:12:10.912Z,3.45
2022-08-29T06:14:38.422Z,4.38
2022-08-29T06:17:08.745Z,3.80
2022-08-29T06:19:36.843Z,3.10
2022-08-29T06:22:09.568Z,3.67
2022-08-29T06:24:39.064Z,3.88
2022-08-29T06:27:06.708Z,4.00
2022-08-29T06:29:34.695Z,3.38
2022-08-29T06:32:11.450Z,3.22
2022-08-29T06:34:38.543Z,3.50
2022-08-29T06:37:05.657Z,3.15
2022-08-29T06:39:32.936Z,3.20
2022-08-29T06:42:00.062Z,3.05
2022-08-29T06:44:30.686Z,3.00
2022-08-29T06:46:59.185Z,2.95
2022-08-29T06:49:27.786Z,3.50
2022-08-29T06:51:58.392Z,3.10
2022-08-29T06:54:28.916Z,3.70
2022-08-29T06:56:57.793Z,3.13
2022-08-29T06:59:24.952Z,3.38
2022-08-29T07:01:53.144Z,3.13
2022-08-29T07:04:20.949Z,3.10
2022-08-29T07:06:49.157Z,3.10
2022-08-29T07:09:16.582Z,3.30
2022-08-29T07:11:43.755Z,3.50
2022-08-29T07:14:12.746Z,3.20
2022-08-29T07:16:40.886Z,3.05
2022-08-29T07:19:10.418Z,3.00
2022-08-29T07:21:40.574Z,3.13
2022-08-29T07:24:08.454Z,3.20
2022-08-29T07:26:41.512Z,3.28
2022-08-29T07:29:15.943Z,3.35
2022-08-29T07:31:43.379Z,3.50
2022-08-29T07:34:11.208Z,3.13
2022-08-29T07:36:38.702Z,3.20
2022-08-29T07:39:09.481Z,3.28
2022-08-29T07:41:41.319Z,3.38
2022-08-29T07:44:09.172Z,3.30
2022-08-29T07:46:36.674Z,3.30
2022-08-29T07:49:04.735Z,3.50
2022-08-29T07:51:31.956Z,3.65
2022-08-29T07:53:59.177Z,3.45
2022-08-29T07:56:29.936Z,2.90
2022-08-29T07:58:59.662Z,3.40
2022-08-29T08:01:27.643Z,3.75
2022-08-29T08:03:55.082Z,3.38
2022-08-29T08:06:27.222Z,3.70
2022-08-29T08:08:55.273Z,3.22
2022-08-29T08:11:24.125Z,3.67
2022-08-29T08:13:53.002Z,3.55
2022-08-29T08:16:22.505Z,3.70
2022-08-29T08:18:50.504Z,3.03
2022-08-29T08:21:18.267Z,3.47
2022-08-29T08:23:45.746Z,3.38
2022-08-29T08:26:14.437Z,3.50
2022-08-29T08:28:43.037Z,3.53
2022-08-29T08:31:11.949Z,3.53
2022-08-29T08:33:45.434Z,3.15
2022-08-29T08:36:19.326Z,3.35
2022-08-29T08:38:46.960Z,3.03
2022-08-29T08:41:27.182Z,3.40
2022-08-29T08:44:04.221Z,3.17
2022-08-29T08:46:41.214Z,3.38
2022-08-29T08:49:50.282Z,3.55
2022-08-29T08:52:25.642Z,3.38
2022-08-29T08:54:58.325Z,2.97
2022-08-29T08:57:32.668Z,3.67
2022-08-29T08:59:59.877Z,3.20
2022-08-29T09:02:27.620Z,3.10
2022-08-29T09:05:25.671Z,3.60
2022-08-29T09:08:22.759Z,3.70
2022-08-29T09:11:00.341Z,3.00
2022-08-29T09:13:46.791Z,3.28
2022-08-29T09:16:18.813Z,4.15
2022-08-29T09:18:52.620Z,3.40
2022-08-29T09:21:40.721Z,3.63
2022-08-29T09:24:16.187Z,3.25
2022-08-29T09:26:43.723Z,3.38
2022-08-29T09:29:13.312Z,3.63
2022-08-29T09:31:41.362Z,3.70
2022-08-29T09:34:11.921Z,3.47
2022-08-29T09:36:47.626Z,3.40
2022-08-29T09:39:31.456Z,3.40
2022-08-29T09:42:13.837Z,3.28
2022-08-29T09:44:44.230Z,3.22
2022-08-29T09:47:21.278Z,3.42
2022-08-29T09:50:06.113Z,3.90
2022-08-29T09:52:33.462Z,3.33
2022-08-29T09:55:20.630Z,3.85
2022-08-29T09:57:55.598Z,3.78
2022-08-29T10:00:34.626Z,3.60
2022-08-29T10:03:04.359Z,3.50
2022-08-29T10:05:39.221Z,3.25
2022-08-29T10:08:08.174Z,3.00
2022-08-29T10:10:36.658Z,3.78
2022-08-29T10:13:22.391Z,3.50
2022-08-29T10:16:13.370Z,3.33
2022-08-29T10:18:46.242Z,3.38
2022-08-29T10:21:34.298Z,3.38
2022-08-29T10:24:24.321Z,3.83
2022-08-29T10:26:56.876Z,3.45
2022-08-29T10:29:38.942Z,3.45
2022-08-29T10:32:24.217Z,3.60
2022-08-29T10:35:19.699Z,3.13
2022-08-29T10:37:55.584Z,2.88
2022-08-29T10:40:43.544Z,3.10
2022-08-29T10:43:20.195Z,3.08
2022-08-29T10:46:18.172Z,3.55
2022-08-29T10:49:04.135Z,2.92
2022-08-29T10:51:54.484Z,3.03
2022-08-29T10:54:49.140Z,3.30
2022-08-29T10:57:36.171Z,2.65
2022-08-29T11:00:09.303Z,2.75
2022-08-29T11:02:58.189Z,3.08
2022-08-29T11:05:29.482Z,2.60
2022-08-29T11:08:16.146Z,2.92
2022-08-29T11:10:50.246Z,2.60
2022-08-29T11:13:42.263Z,2.53
2022-08-29T11:16:21.349Z,2.60
2022-08-29T11:19:18.945Z,2.50
2022-08-29T11:22:06.115Z,2.70
2022-08-29T11:24:37.352Z,2.33
2022-08-29T11:27:24.191Z,2.38
2022-08-29T11:30:40.987Z,2.50
2022-08-29T11:33:31.375Z,1.85
2022-08-29T11:36:15.323Z,2.10
2022-08-29T11:39:06.485Z,2.00
2022-08-29T11:41:58.682Z,2.10
2022-08-29T11:44:37.060Z,2.38
2022-08-29T11:47:56.973Z,1.73
2022-08-29T11:50:30.302Z,2.03
2022-08-29T11:53:34.049Z,1.90
2022-08-29T11:56:12.985Z,2.22
2022-08-29T11:58:43.176Z,1.52
2022-08-29T12:01:35.754Z,1.90
2022-08-29T12:04:07.991Z,2.28
2022-08-29T12:06:38.705Z,1.92
2022-08-29T12:09:14.620Z,1.80
2022-08-29T12:12:05.313Z,1.90
2022-08-29T12:14:38.081Z,2.05
2022-08-29T12:17:11.509Z,2.28
2022-08-29T12:19:48.813Z,2.22
2022-08-29T12:22:52.231Z,2.17
2022-08-29T12:25:28.156Z,1.80
2022-08-29T12:28:01.398Z,1.70
2022-08-29T12:30:34.369Z,1.60
2022-08-29T12:33:04.358Z,1.70
2022-08-29T12:35:43.900Z,1.52
2022-08-29T12:38:42.034Z,1.50
2022-08-29T12:41:37.292Z,1.50
2022-08-29T12:44:12.198Z,1.73
2022-08-29T12:46:43.120Z,1.77
2022-08-29T12:49:29.698Z,1.63
2022-08-29T12:52:08.134Z,1.75
2022-08-29T12:54:39.351Z,1.50
2022-08-29T12:57:09.513Z,1.55
2022-08-29T12:59:36.625Z,1.80
2022-08-29T13:02:03.846Z,1.27
2022-08-29T13:04:36.501Z,1.40
2022-08-29T13:07:15.926Z,1.75
2022-08-29T13:09:44.797Z,1.58
2022-08-29T13:12:28.472Z,1.40
2022-08-29T13:15:21.552Z,1.50
2022-08-29T13:17:52.019Z,1.60
2022-08-29T13:20:43.478Z,1.48
2022-08-29T13:23:20.051Z,1.20
2022-08-29T13:26:05.368Z,1.10
2022-08-29T13:28:38.501Z,1.30
2022-08-29T13:31:23.663Z,1.10
2022-08-29T13:33:56.887Z,1.00
2022-08-29T13:36:37.384Z,1.38
2022-08-29T13:39:25.011Z,1.13
2022-08-29T13:42:25.915Z,1.30
2022-08-29T13:45:02.660Z,1.20
2022-08-29T13:47:33.235Z,1.58
2022-08-29T13:50:04.101Z,1.50
2022-08-29T13:52:31.621Z,1.15
2022-08-29T13:54:59.468Z,1.10
2022-08-29T13:57:29.329Z,1.38
2022-08-29T14:00:01.163Z,1.60
2022-08-29T14:02:29.662Z,1.30
2022-08-29T14:04:57.105Z,1.40
2022-08-29T14:07:32.632Z,1.50
2022-08-29T14:10:00.088Z,1.40
2022-08-29T14:12:33.404Z,1.60
2022-08-29T14:15:06.784Z,1.52
2022-08-29T14:17:36.550Z,1.40
2022-08-29T14:20:07.099Z,1.38
2022-08-29T14:22:34.214Z,1.35
2022-08-29T14:25:02.769Z,1.40
2022-08-29T14:27:29.993Z,1.48
2022-08-29T14:29:57.112Z,1.48
2022-08-29T14:32:24.451Z,1.45
2022-08-29T14:34:54.134Z,1.40
2022-08-29T14:37:21.403Z,1.42
2022-08-29T14:39:49.886Z,1.50
2022-08-29T14:42:18.400Z,1.52
2022-08-29T14:44:45.934Z,1.45
2022-08-29T14:47:13.537Z,1.30
2022-08-29T14:49:41.132Z,1.30
2022-08-29T14:52:08.236Z,1.38
2022-08-29T14:54:35.362Z,1.10
2022-08-29T14:57:02.481Z,1.45
2022-08-29T14:59:29.652Z,1.30
2022-08-29T15:01:56.912Z,1.30
2022-08-29T15:04:34.971Z,1.90
2022-08-29T15:07:05.538Z,2.03
2022-08-29T15:09:32.755Z,2.42
2022-08-29T15:11:59.929Z,2.58
2022-08-29T15:14:27.112Z,2.30
2022-08-29T15:16:54.145Z,1.98
2022-08-29T15:22:09.665Z,2.40
2022-08-29T15:24:36.984Z,2.30
2022-08-29T15:27:05.568Z,2.67
2022-08-29T15:29:33.141Z,2.05
2022-08-29T15:32:00.334Z,2.60
2022-08-29T15:34:29.305Z,2.25
2022-08-29T15:36:57.539Z,2.38
2022-08-29T15:39:27.414Z,2.42
2022-08-29T15:42:00.090Z,2.25
2022-08-29T15:44:28.565Z,2.58
2022-08-29T15:46:57.050Z,2.42
2022-08-29T15:49:26.617Z,2.28
2022-08-29T15:51:54.660Z,2.22
2022-08-29T15:54:23.804Z,2.65
2022-08-29T15:56:51.757Z,2.17
2022-08-29T15:59:30.987Z,2.05
2022-08-29T16:02:10.368Z,2.67
2022-08-29T16:04:39.244Z,2.55
2022-08-29T16:07:06.496Z,2.38
2022-08-29T16:09:33.635Z,2.20
2022-08-29T16:12:00.744Z,2.50
2022-08-29T16:14:58.067Z,2.40
2022-08-29T16:17:15.509Z,2.50
2022-08-29T16:19:42.976Z,2.53
2022-08-29T16:22:10.980Z,2.70
2022-08-29T16:24:38.695Z,2.38
2022-08-29T16:27:06.701Z,2.50
2022-08-29T16:29:35.162Z,2.60
2022-08-29T16:32:02.567Z,2.40
2022-08-29T16:34:30.103Z,2.53
2022-08-29T16:36:58.776Z,2.75
2022-08-29T16:39:26.847Z,2.40
2022-08-29T16:41:57.313Z,2.25
2022-08-29T16:44:24.617Z,2.30
2022-08-29T16:46:51.816Z,2.38
2022-08-29T16:49:19.607Z,2.55
2022-08-29T16:51:46.720Z,2.53
2022-08-29T16:54:13.822Z,8.45
2022-08-29T16:56:40.913Z,2.55
2022-08-29T16:59:08.519Z,3.08
2022-08-29T17:01:46.082Z,6.22
2022-08-29T17:04:16.843Z,2.92
2022-08-29T17:06:46.636Z,4.75
2022-08-29T17:09:14.303Z,2.67
2022-08-29T17:11:41.902Z,2.42
2022-08-29T17:14:10.398Z,2.72
2022-08-29T17:16:38.667Z,2.70
2022-08-29T17:19:07.133Z,2.65
2022-08-29T17:21:35.501Z,2.47
2022-08-29T17:24:06.854Z,2.78
2022-08-29T17:26:40.776Z,2.28
2022-08-29T17:29:09.127Z,2.63
2022-08-29T17:31:38.515Z,2.92
2022-08-29T17:34:07.902Z,4.38
2022-08-29T17:36:40.762Z,2.78
2022-08-29T17:39:08.512Z,2.70
2022-08-29T17:41:37.328Z,2.80
2022-08-29T17:44:07.704Z,2.97
2022-08-29T17:46:35.398Z,3.25
2022-08-29T17:49:07.723Z,2.60
2022-08-29T17:51:35.717Z,2.97
2022-08-29T17:54:08.423Z,2.85
2022-08-29T17:56:44.133Z,2.90
2022-08-29T17:59:12.676Z,3.00
2022-08-29T18:01:40.251Z,3.05
2022-08-29T18:04:07.337Z,2.83
2022-08-29T18:06:34.550Z,3.00
2022-08-29T18:09:02.080Z,3.40
2022-08-29T18:11:31.377Z,2.95
2022-08-29T18:14:01.146Z,3.47
2022-08-29T18:16:28.493Z,3.28
2022-08-29T18:18:55.615Z,3.45
2022-08-29T18:21:22.817Z,2.80
2022-08-29T18:23:49.982Z,3.22
2022-08-29T18:26:17.476Z,3.05
2022-08-29T18:28:44.590Z,2.95
2022-08-29T18:31:12.640Z,3.08
2022-08-29T18:34:00.058Z,2.80
2022-08-29T18:36:32.601Z,3.55
2022-08-29T18:39:00.835Z,3.05
2022-08-29T18:41:28.071Z,3.20
2022-08-29T18:43:55.343Z,3.00
2022-08-29T18:46:22.701Z,3.30
2022-08-29T18:48:49.827Z,3.20
2022-08-29T18:51:17.454Z,3.28
2022-08-29T18:53:45.262Z,3.38
2022-08-29T18:56:12.837Z,3.40
2022-08-29T18:58:41.486Z,3.10
2022-08-29T19:01:14.506Z,3.08
2022-08-29T19:03:41.796Z,3.30
2022-08-29T19:06:08.885Z,3.30
2022-08-29T19:08:36.703Z,3.70
2022-08-29T19:11:06.724Z,3.30
2022-08-29T19:13:35.476Z,3.85
2022-08-29T19:16:05.668Z,3.30
2022-08-29T19:18:34.072Z,3.45
2022-08-29T19:21:06.627Z,3.38
2022-08-29T19:23:36.248Z,3.90
2022-08-29T19:26:07.147Z,3.53
2022-08-29T19:28:35.029Z,3.92
2022-08-29T19:31:02.926Z,3.70
2022-08-29T19:33:30.240Z,3.83
2022-08-29T19:35:57.622Z,3.60
2022-08-29T19:38:24.791Z,3.72
2022-08-29T19:40:56.413Z,3.50
2022-08-29T19:43:27.549Z,3.78
2022-08-29T19:45:59.115Z,3.58
2022-08-29T19:48:26.835Z,3.45
2022-08-29T19:50:54.400Z,3.90
2022-08-29T19:53:26.456Z,3.38
2022-08-29T19:55:55.825Z,3.45
2022-08-29T19:58:31.395Z,3.63
2022-08-29T20:01:01.900Z,3.70
2022-08-29T20:03:29.763Z,3.70
2022-08-29T20:05:59.370Z,3.55
2022-08-29T20:08:27.366Z,4.03
2022-08-29T20:10:56.322Z,3.75
2022-08-29T20:13:23.693Z,3.92
2022-08-29T20:15:51.211Z,3.80
2022-08-29T20:18:19.848Z,4.18
2022-08-29T20:20:48.080Z,3.53
2022-08-29T20:23:16.318Z,3.85
2022-08-29T20:25:44.156Z,3.72
2022-08-29T20:28:15.846Z,3.85
2022-08-29T20:30:43.339Z,3.60
2022-08-29T20:33:11.617Z,3.85
2022-08-29T20:35:57.314Z,3.80
2022-08-29T20:38:24.633Z,3.50
2022-08-29T20:40:52.235Z,3.60
2022-08-29T20:43:19.955Z,3.75
2022-08-29T20:45:47.286Z,4.53
2022-08-29T20:48:14.711Z,3.92
2022-08-29T20:50:42.169Z,3.92
2022-08-29T20:53:09.511Z,3.85
2022-08-29T20:55:42.511Z,3.55
2022-08-29T20:58:09.622Z,3.40
2022-08-29T21:00:36.879Z,3.90
2022-08-29T21:03:22.331Z,4.00
2022-08-29T21:05:49.608Z,4.18
2022-08-29T21:08:22.807Z,3.53
2022-08-29T21:10:52.568Z,3.75
2022-08-29T21:13:20.320Z,3.75
2022-08-29T21:15:48.099Z,3.60
2022-08-29T21:18:20.245Z,3.78
2022-08-29T21:20:54.429Z,3.80
2022-08-29T21:23:23.309Z,4.00
2022-08-29T21:26:14.627Z,4.00
2022-08-29T21:28:44.363Z,3.72
2022-08-29T21:31:15.558Z,3.47
2022-08-29T21:33:44.664Z,4.05
2022-08-29T21:36:14.539Z,3.35
2022-08-29T21:38:41.752Z,3.47
2022-08-29T21:41:10.496Z,4.00
2022-08-29T21:43:38.140Z,3.60
2022-08-29T21:46:17.808Z,3.50
2022-08-29T21:48:46.087Z,4.07
2022-08-29T21:51:18.142Z,4.03
2022-08-29T21:53:50.481Z,3.72
2022-08-29T21:56:18.180Z,3.42
2022-08-29T21:58:48.533Z,3.67
2022-08-29T22:01:15.800Z,3.92
2022-08-29T22:03:42.937Z,3.28
2022-08-29T22:06:11.109Z,4.15
2022-08-29T22:08:38.848Z,3.50
2022-08-29T22:11:17.874Z,3.53
2022-08-29T22:13:45.324Z,3.60
2022-08-29T22:16:29.763Z,3.35
2022-08-29T22:19:06.960Z,3.20
2022-08-29T22:21:39.473Z,3.88
2022-08-29T22:24:07.568Z,3.40
2022-08-29T22:26:35.586Z,3.67
2022-08-29T22:29:03.223Z,4.05
2022-08-29T22:31:32.044Z,3.67
2022-08-29T22:34:08.749Z,4.00
2022-08-29T22:36:35.797Z,3.72
2022-08-29T22:39:03.299Z,3.45
2022-08-29T22:41:30.458Z,3.65
2022-08-29T22:44:37.682Z,3.92
2022-08-29T22:46:45.832Z,3.80
2022-08-29T22:49:13.863Z,4.00
2022-08-29T22:51:41.029Z,4.22
2022-08-29T22:54:26.711Z,4.10
2022-08-29T22:56:54.409Z,4.18
2022-08-29T22:59:22.213Z,4.05
2022-08-29T23:01:49.789Z,3.78
2022-08-29T23:04:17.296Z,3.75
2022-08-29T23:06:44.447Z,4.13
2022-08-29T23:09:13.015Z,3.70
2022-08-29T23:11:40.782Z,3.53
2022-08-29T23:14:08.654Z,3.83
2022-08-29T23:16:40.316Z,3.90
2022-08-29T23:19:07.416Z,3.88
2022-08-29T23:21:35.120Z,3.83
2022-08-29T23:24:07.941Z,3.85
2022-08-29T23:26:36.693Z,3.90
2022-08-29T23:29:04.820Z,3.75
2022-08-29T23:31:32.014Z,4.07
2022-08-29T23:33:59.116Z,3.53
2022-08-29T23:36:26.222Z,3.53
2022-08-29T23:38:53.422Z,3.63
2022-08-29T23:41:22.625Z,3.92
2022-08-29T23:43:50.009Z,3.67
2022-08-29T23:46:17.247Z,4.00
2022-08-29T23:48:44.854Z,3.50
2022-08-29T23:51:14.681Z,4.30
2022-08-29T23:53:42.947Z,4.03
2022-08-29T23:56:17.756Z,3.88
2022-08-29T23:58:45.156Z,3.85
